This is the latest recevied weather packets stored in our database for station/object SQ5SUI-3. If no packets are shown the sender has not sent any weather packets the latest 1 day(s).
| Time | Temp. | Humidity | Pressure | Rain* | Wind** | Luminosity | Snow |
|---|---|---|---|---|---|---|---|
| 1777989658 | 27.22° C | 10% | 1021.2 hPa | 0 mm | 1.79 m/s, 179° | - | - |
| 1777987859 | 27.78° C | 10% | 1020.6 hPa | 0 mm | 1.79 m/s, 175° | - | - |
| 1777986059 | 27.78° C | 10% | 1020.1 hPa | 0 mm | 1.79 m/s, 152° | - | - |
| 1777984259 | 28.89° C | 11% | 1019.6 hPa | 0 mm | 1.34 m/s, 182° | - | - |
| 1777982458 | 28.33° C | 14% | 1019.3 hPa | 0 mm | 2.68 m/s, 162° | - | - |
| 1777980659 | 27.78° C | 10% | 1018.7 hPa | 0 mm | 1.79 m/s, 167° | - | - |
| 1777978859 | 27.78° C | 14% | 1018.3 hPa | 0 mm | 3.13 m/s, 167° | - | - |
| 1777977058 | 27.22° C | 13% | 1017.7 hPa | 0 mm | 1.79 m/s, 172° | - | - |
| 1777975260 | 26.67° C | 19% | 1017.4 hPa | 0 mm | 1.79 m/s, 155° | - | - |
| 1777973459 | 26.67° C | 20% | 1017.2 hPa | 0 mm | 2.24 m/s, 179° | - | - |
| 1777971659 | 26.67° C | 19% | 1017 hPa | 0 mm | 1.34 m/s, 193° | - | - |
| 1777969859 | 26.11° C | 19% | 1016.4 hPa | 0 mm | 1.34 m/s, 199° | - | - |
| 1777968059 | 25° C | 20% | 1016.4 hPa | 0 mm | 1.34 m/s, 198° | - | - |
| 1777966259 | 25° C | 24% | 1016.3 hPa | 0 mm | 2.24 m/s, 208° | - | - |
| 1777964460 | 22.22° C | 27% | 1015.9 hPa | 0 mm | 1.34 m/s, 217° | - | - |
| 1777962660 | 21.11° C | 30% | 1015.6 hPa | 0 mm | 1.34 m/s, 208° | - | - |
| 1777960859 | 19.44° C | 34% | 1015.6 hPa | 0 mm | 0.45 m/s, 194° | - | - |
| 1777959060 | 17.22° C | 45% | 1015.7 hPa | 0 mm | 0 m/s | - | - |
| 1777957259 | 15.56° C | 53% | 1015.5 hPa | 0 mm | 0.45 m/s, 177° | - | - |
| 1777955459 | 14.44° C | 53% | 1015.7 hPa | 0 mm | 0.45 m/s, 176° | - | - |
| 1777953659 | 15.56° C | 44% | 1015.6 hPa | 0 mm | 0.89 m/s, 205° | - | - |
| 1777951860 | 14.44° C | 47% | 1015.7 hPa | 0 mm | 0.45 m/s, 195° | - | - |
| 1777950059 | 11.67° C | 66% | 1015.6 hPa | 0 mm | 0.89 m/s, 188° | - | - |
| 1777948259 | 12.78° C | 59% | 1015.7 hPa | 0 mm | 0.45 m/s, 181° | - | - |
| 1777946458 | 12.22° C | 63% | 1015.7 hPa | 0 mm | 0.89 m/s, 190° | - | - |
* Rain latest hour (hover to see other rain measurements)
** Current wind speed in m/s (hover to see current wind gust speed)